sensor_id;sensor_type;location;lat;lon;timestamp;pressure;altitude;pressure_sealevel;temperature;humidity
25759;BME280;13604;52.496;13.456;2023-05-07T00:00:32;101816.72;;;7.85;100.00
25759;BME280;13604;52.496;13.456;2023-05-07T00:02:58;101805.78;;;7.78;100.00
25759;BME280;13604;52.496;13.456;2023-05-07T00:05:24;101786.97;;;7.68;100.00
25759;BME280;13604;52.496;13.456;2023-05-07T00:07:49;101820.91;;;7.83;100.00
25759;BME280;13604;52.496;13.456;2023-05-07T00:10:15;101816.28;;;7.79;100.00
25759;BME280;13604;52.496;13.456;2023-05-07T00:12:40;101811.19;;;7.81;100.00
25759;BME280;13604;52.496;13.456;2023-05-07T00:15:06;101809.84;;;7.74;100.00
25759;BME280;13604;52.496;13.456;2023-05-07T00:17:33;101818.31;;;7.83;100.00
25759;BME280;13604;52.496;13.456;2023-05-07T00:19:58;101815.63;;;7.82;100.00
25759;BME280;13604;52.496;13.456;2023-05-07T00:22:24;101778.97;;;7.65;100.00
25759;BME280;13604;52.496;13.456;2023-05-07T00:24:49;101813.13;;;7.83;100.00
25759;BME280;13604;52.496;13.456;2023-05-07T00:27:14;101798.91;;;7.43;100.00
25759;BME280;13604;52.496;13.456;2023-05-07T00:29:40;101758.56;;;7.46;100.00
25759;BME280;13604;52.496;13.456;2023-05-07T00:32:05;101793.72;;;7.66;100.00
25759;BME280;13604;52.496;13.456;2023-05-07T00:34:30;101788.88;;;7.71;100.00
25759;BME280;13604;52.496;13.456;2023-05-07T00:36:56;101817.41;;;7.83;100.00
25759;BME280;13604;52.496;13.456;2023-05-07T00:39:21;101797.25;;;7.55;100.00
25759;BME280;13604;52.496;13.456;2023-05-07T00:41:46;101788.88;;;7.47;100.00
25759;BME280;13604;52.496;13.456;2023-05-07T00:44:12;101783.00;;;7.38;100.00
25759;BME280;13604;52.496;13.456;2023-05-07T00:46:37;101813.00;;;7.46;100.00
25759;BME280;13604;52.496;13.456;2023-05-07T00:49:02;101797.00;;;7.52;100.00
25759;BME280;13604;52.496;13.456;2023-05-07T00:51:30;101807.38;;;7.52;100.00
25759;BME280;13604;52.496;13.456;2023-05-07T00:53:56;101812.78;;;7.55;100.00
25759;BME280;13604;52.496;13.456;2023-05-07T00:56:21;101779.19;;;7.45;100.00
25759;BME280;13604;52.496;13.456;2023-05-07T00:58:47;101792.59;;;7.51;100.00
25759;BME280;13604;52.496;13.456;2023-05-07T01:01:12;101791.94;;;7.53;100.00
25759;BME280;13604;52.496;13.456;2023-05-07T01:03:38;101810.09;;;7.77;100.00
25759;BME280;13604;52.496;13.456;2023-05-07T01:06:04;101812.44;;;7.62;100.00
25759;BME280;13604;52.496;13.456;2023-05-07T01:08:31;101774.81;;;7.44;100.00
25759;BME280;13604;52.496;13.456;2023-05-07T01:10:57;101812.56;;;7.64;100.00
25759;BME280;13604;52.496;13.456;2023-05-07T01:13:24;101799.84;;;7.67;100.00
25759;BME280;13604;52.496;13.456;2023-05-07T01:15:50;101791.81;;;7.64;100.00
25759;BME280;13604;52.496;13.456;2023-05-07T01:18:15;101790.69;;;7.60;100.00
25759;BME280;13604;52.496;13.456;2023-05-07T01:20:41;101788.78;;;7.58;100.00
25759;BME280;13604;52.496;13.456;2023-05-07T01:23:07;101817.97;;;7.67;100.00
25759;BME280;13604;52.496;13.456;2023-05-07T01:25:32;101820.88;;;7.60;100.00
25759;BME280;13604;52.496;13.456;2023-05-07T01:27:57;101819.56;;;7.65;100.00
25759;BME280;13604;52.496;13.456;2023-05-07T01:30:25;101817.88;;;7.65;100.00
25759;BME280;13604;52.496;13.456;2023-05-07T01:32:52;101822.69;;;7.72;100.00
25759;BME280;13604;52.496;13.456;2023-05-07T01:35:20;101822.25;;;7.66;100.00
25759;BME280;13604;52.496;13.456;2023-05-07T01:37:47;101821.94;;;7.73;100.00
25759;BME280;13604;52.496;13.456;2023-05-07T01:40:13;101810.97;;;7.66;100.00
25759;BME280;13604;52.496;13.456;2023-05-07T01:42:39;101823.94;;;7.78;100.00
25759;BME280;13604;52.496;13.456;2023-05-07T01:45:05;101812.34;;;7.72;100.00
25759;BME280;13604;52.496;13.456;2023-05-07T01:47:32;101825.53;;;7.76;100.00
25759;BME280;13604;52.496;13.456;2023-05-07T01:49:57;101817.16;;;7.68;100.00
25759;BME280;13604;52.496;13.456;2023-05-07T01:52:23;101803.78;;;7.62;100.00
25759;BME280;13604;52.496;13.456;2023-05-07T01:54:50;101818.09;;;7.68;100.00
25759;BME280;13604;52.496;13.456;2023-05-07T01:57:15;101808.84;;;7.72;100.00
25759;BME280;13604;52.496;13.456;2023-05-07T01:59:40;101802.19;;;7.64;100.00
25759;BME280;13604;52.496;13.456;2023-05-07T02:02:05;101809.97;;;7.64;100.00
25759;BME280;13604;52.496;13.456;2023-05-07T02:04:31;101799.03;;;7.44;100.00
25759;BME280;13604;52.496;13.456;2023-05-07T02:06:56;101798.13;;;7.55;100.00
25759;BME280;13604;52.496;13.456;2023-05-07T02:09:21;101838.06;;;7.81;100.00
25759;BME280;13604;52.496;13.456;2023-05-07T02:11:48;101818.28;;;7.60;100.00
25759;BME280;13604;52.496;13.456;2023-05-07T02:14:13;101824.84;;;7.66;100.00
25759;BME280;13604;52.496;13.456;2023-05-07T02:16:38;101829.34;;;7.69;100.00
25759;BME280;13604;52.496;13.456;2023-05-07T02:19:04;101827.53;;;7.68;100.00
25759;BME280;13604;52.496;13.456;2023-05-07T02:21:29;101855.28;;;7.81;100.00
25759;BME280;13604;52.496;13.456;2023-05-07T02:23:54;101813.91;;;7.59;100.00
25759;BME280;13604;52.496;13.456;2023-05-07T02:26:20;101845.16;;;7.84;100.00
25759;BME280;13604;52.496;13.456;2023-05-07T02:28:46;101827.56;;;7.80;100.00
25759;BME280;13604;52.496;13.456;2023-05-07T02:31:12;101841.78;;;7.73;100.00
25759;BME280;13604;52.496;13.456;2023-05-07T02:33:37;101822.94;;;7.64;100.00
25759;BME280;13604;52.496;13.456;2023-05-07T02:36:07;101848.97;;;7.77;100.00
25759;BME280;13604;52.496;13.456;2023-05-07T02:38:33;101811.75;;;7.53;100.00
25759;BME280;13604;52.496;13.456;2023-05-07T02:40:58;101835.53;;;7.59;100.00
25759;BME280;13604;52.496;13.456;2023-05-07T02:43:23;101800.03;;;7.58;100.00
25759;BME280;13604;52.496;13.456;2023-05-07T02:45:49;101822.94;;;7.64;100.00
25759;BME280;13604;52.496;13.456;2023-05-07T02:48:14;101832.75;;;7.80;100.00
25759;BME280;13604;52.496;13.456;2023-05-07T02:50:39;101825.53;;;7.64;100.00
25759;BME280;13604;52.496;13.456;2023-05-07T02:53:05;101835.31;;;7.68;100.00
25759;BME280;13604;52.496;13.456;2023-05-07T02:55:30;101847.63;;;7.82;100.00
25759;BME280;13604;52.496;13.456;2023-05-07T02:57:56;101824.28;;;7.59;100.00
25759;BME280;13604;52.496;13.456;2023-05-07T03:00:21;101857.22;;;7.83;100.00
25759;BME280;13604;52.496;13.456;2023-05-07T03:02:47;101864.00;;;7.81;100.00
25759;BME280;13604;52.496;13.456;2023-05-07T03:05:12;101863.19;;;7.82;100.00
25759;BME280;13604;52.496;13.456;2023-05-07T03:07:39;101866.91;;;7.74;100.00
25759;BME280;13604;52.496;13.456;2023-05-07T03:10:05;101825.63;;;7.53;100.00
25759;BME280;13604;52.496;13.456;2023-05-07T03:12:30;101873.22;;;7.78;100.00
25759;BME280;13604;52.496;13.456;2023-05-07T03:14:56;101867.34;;;7.68;100.00
25759;BME280;13604;52.496;13.456;2023-05-07T03:17:21;101856.53;;;7.74;100.00
25759;BME280;13604;52.496;13.456;2023-05-07T03:19:47;101847.41;;;7.67;100.00
25759;BME280;13604;52.496;13.456;2023-05-07T03:22:12;101831.72;;;7.54;100.00
25759;BME280;13604;52.496;13.456;2023-05-07T03:24:37;101851.00;;;7.58;100.00
25759;BME280;13604;52.496;13.456;2023-05-07T03:27:03;101870.94;;;7.59;100.00
25759;BME280;13604;52.496;13.456;2023-05-07T03:29:28;101845.66;;;7.44;100.00
25759;BME280;13604;52.496;13.456;2023-05-07T03:31:53;101845.44;;;7.41;100.00
25759;BME280;13604;52.496;13.456;2023-05-07T03:34:19;101865.88;;;7.48;100.00
25759;BME280;13604;52.496;13.456;2023-05-07T03:36:48;101881.19;;;7.57;100.00
25759;BME280;13604;52.496;13.456;2023-05-07T03:39:13;101871.38;;;7.53;100.00
25759;BME280;13604;52.496;13.456;2023-05-07T03:41:38;101876.44;;;7.51;100.00
25759;BME280;13604;52.496;13.456;2023-05-07T03:44:04;101881.09;;;7.55;100.00
25759;BME280;13604;52.496;13.456;2023-05-07T03:46:29;101862.00;;;7.43;100.00
25759;BME280;13604;52.496;13.456;2023-05-07T03:48:54;101881.19;;;7.57;100.00
25759;BME280;13604;52.496;13.456;2023-05-07T03:51:20;101886.38;;;7.57;100.00
25759;BME280;13604;52.496;13.456;2023-05-07T03:53:45;101887.72;;;7.52;100.00
25759;BME280;13604;52.496;13.456;2023-05-07T03:56:10;101892.09;;;7.41;100.00
25759;BME280;13604;52.496;13.456;2023-05-07T03:58:36;101879.22;;;7.31;100.00
25759;BME280;13604;52.496;13.456;2023-05-07T04:01:01;101865.50;;;7.32;100.00
25759;BME280;13604;52.496;13.456;2023-05-07T04:03:27;101872.59;;;7.46;100.00
25759;BME280;13604;52.496;13.456;2023-05-07T04:05:52;101878.47;;;7.44;100.00
25759;BME280;13604;52.496;13.456;2023-05-07T04:08:17;101878.91;;;7.50;100.00
25759;BME280;13604;52.496;13.456;2023-05-07T04:10:43;101872.19;;;7.52;100.00
25759;BME280;13604;52.496;13.456;2023-05-07T04:13:08;101864.59;;;7.43;100.00
25759;BME280;13604;52.496;13.456;2023-05-07T04:15:33;101857.75;;;7.44;100.00
25759;BME280;13604;52.496;13.456;2023-05-07T04:17:58;101865.28;;;7.41;100.00
25759;BME280;13604;52.496;13.456;2023-05-07T04:20:24;101900.94;;;7.67;100.00
25759;BME280;13604;52.496;13.456;2023-05-07T04:22:49;101901.72;;;7.66;100.00
25759;BME280;13604;52.496;13.456;2023-05-07T04:25:15;101896.53;;;7.66;100.00
25759;BME280;13604;52.496;13.456;2023-05-07T04:27:41;101870.13;;;7.48;100.00
25759;BME280;13604;52.496;13.456;2023-05-07T04:30:07;101887.28;;;7.58;100.00
25759;BME280;13604;52.496;13.456;2023-05-07T04:32:32;101880.19;;;7.55;100.00
25759;BME280;13604;52.496;13.456;2023-05-07T04:34:57;101899.25;;;7.79;100.00
25759;BME280;13604;52.496;13.456;2023-05-07T04:37:23;101911.56;;;7.82;100.00
25759;BME280;13604;52.496;13.456;2023-05-07T04:39:48;101895.19;;;7.71;100.00
25759;BME280;13604;52.496;13.456;2023-05-07T04:42:17;101921.84;;;8.04;99.92
25759;BME280;13604;52.496;13.456;2023-05-07T04:44:45;101916.66;;;8.04;99.19
25759;BME280;13604;52.496;13.456;2023-05-07T04:47:11;101913.81;;;8.01;98.26
25759;BME280;13604;52.496;13.456;2023-05-07T04:49:37;101919.25;;;8.04;98.27
25759;BME280;13604;52.496;13.456;2023-05-07T04:52:03;101922.88;;;8.18;97.92
25759;BME280;13604;52.496;13.456;2023-05-07T04:54:28;101912.38;;;8.16;97.22
25759;BME280;13604;52.496;13.456;2023-05-07T04:56:54;101895.09;;;8.17;96.87
25759;BME280;13604;52.496;13.456;2023-05-07T04:59:19;101899.06;;;8.23;96.82
25759;BME280;13604;52.496;13.456;2023-05-07T05:01:44;101906.72;;;8.34;95.73
25759;BME280;13604;52.496;13.456;2023-05-07T05:04:10;101885.94;;;8.34;95.59
25759;BME280;13604;52.496;13.456;2023-05-07T05:06:35;101922.88;;;8.53;93.74
25759;BME280;13604;52.496;13.456;2023-05-07T05:09:00;101937.28;;;8.73;93.59
25759;BME280;13604;52.496;13.456;2023-05-07T05:11:26;101924.63;;;8.78;92.31
25759;BME280;13604;52.496;13.456;2023-05-07T05:13:51;101918.59;;;8.91;91.92
25759;BME280;13604;52.496;13.456;2023-05-07T05:16:16;101909.44;;;8.96;90.74
25759;BME280;13604;52.496;13.456;2023-05-07T05:18:41;101918.44;;;9.13;90.74
25759;BME280;13604;52.496;13.456;2023-05-07T05:21:07;101906.59;;;9.05;89.29
25759;BME280;13604;52.496;13.456;2023-05-07T05:23:32;101934.75;;;9.24;88.93
25759;BME280;13604;52.496;13.456;2023-05-07T05:25:58;101930.00;;;9.30;87.24
25759;BME280;13604;52.496;13.456;2023-05-07T05:28:23;101934.09;;;9.14;86.83
25759;BME280;13604;52.496;13.456;2023-05-07T05:30:49;101916.41;;;9.09;87.40
25759;BME280;13604;52.496;13.456;2023-05-07T05:33:15;101938.91;;;9.33;87.69
25759;BME280;13604;52.496;13.456;2023-05-07T05:35:40;101910.38;;;9.21;87.05
25759;BME280;13604;52.496;13.456;2023-05-07T05:38:05;101938.47;;;9.52;86.44
25759;BME280;13604;52.496;13.456;2023-05-07T05:40:31;101919.25;;;9.50;85.54
25759;BME280;13604;52.496;13.456;2023-05-07T05:42:57;101939.56;;;9.43;85.31
25759;BME280;13604;52.496;13.456;2023-05-07T05:45:22;101916.59;;;8.75;87.58
25759;BME280;13604;52.496;13.456;2023-05-07T05:47:47;101942.41;;;8.72;88.62
25759;BME280;13604;52.496;13.456;2023-05-07T05:50:12;101952.69;;;9.07;88.94
25759;BME280;13604;52.496;13.456;2023-05-07T05:52:38;101915.72;;;9.11;87.15
25759;BME280;13604;52.496;13.456;2023-05-07T05:55:03;101910.31;;;9.08;86.16
25759;BME280;13604;52.496;13.456;2023-05-07T05:57:29;101932.59;;;9.30;86.58
25759;BME280;13604;52.496;13.456;2023-05-07T05:59:54;101949.00;;;9.54;85.92
25759;BME280;13604;52.496;13.456;2023-05-07T06:02:20;101954.22;;;9.67;85.28
25759;BME280;13604;52.496;13.456;2023-05-07T06:04:45;101948.28;;;9.56;85.08
25759;BME280;13604;52.496;13.456;2023-05-07T06:07:10;101967.13;;;9.66;83.62
25759;BME280;13604;52.496;13.456;2023-05-07T06:09:36;101939.47;;;9.54;82.90
25759;BME280;13604;52.496;13.456;2023-05-07T06:12:01;101938.06;;;9.46;83.94
25759;BME280;13604;52.496;13.456;2023-05-07T06:14:27;101967.94;;;9.39;85.69
25759;BME280;13604;52.496;13.456;2023-05-07T06:16:52;101949.19;;;9.57;85.36
25759;BME280;13604;52.496;13.456;2023-05-07T06:19:17;101955.19;;;9.31;85.42
25759;BME280;13604;52.496;13.456;2023-05-07T06:21:48;101944.47;;;9.51;85.09
25759;BME280;13604;52.496;13.456;2023-05-07T06:24:13;101966.97;;;9.89;85.77
25759;BME280;13604;52.496;13.456;2023-05-07T06:26:38;101955.88;;;9.92;83.32
25759;BME280;13604;52.496;13.456;2023-05-07T06:29:03;101946.81;;;9.73;82.83
25759;BME280;13604;52.496;13.456;2023-05-07T06:31:30;101967.81;;;9.63;84.59
25759;BME280;13604;52.496;13.456;2023-05-07T06:33:56;101970.69;;;9.93;84.02
25759;BME280;13604;52.496;13.456;2023-05-07T06:36:22;101962.31;;;10.24;84.17
25759;BME280;13604;52.496;13.456;2023-05-07T06:38:47;101957.56;;;9.91;82.66
25759;BME280;13604;52.496;13.456;2023-05-07T06:41:12;101956.56;;;9.89;85.29
25759;BME280;13604;52.496;13.456;2023-05-07T06:43:38;101964.50;;;10.18;82.96
25759;BME280;13604;52.496;13.456;2023-05-07T06:46:03;101967.25;;;10.32;81.40
25759;BME280;13604;52.496;13.456;2023-05-07T06:48:28;101992.69;;;10.77;79.53
25759;BME280;13604;52.496;13.456;2023-05-07T06:50:54;101980.56;;;10.91;78.26
25759;BME280;13604;52.496;13.456;2023-05-07T06:53:20;101989.84;;;11.14;79.09
25759;BME280;13604;52.496;13.456;2023-05-07T06:55:46;101991.56;;;11.41;76.29
25759;BME280;13604;52.496;13.456;2023-05-07T06:58:11;101997.16;;;11.63;75.02
25759;BME280;13604;52.496;13.456;2023-05-07T07:00:36;101977.50;;;11.83;72.44
25759;BME280;13604;52.496;13.456;2023-05-07T07:03:02;101993.69;;;11.77;72.43
25759;BME280;13604;52.496;13.456;2023-05-07T07:05:27;102001.47;;;12.20;71.50
25759;BME280;13604;52.496;13.456;2023-05-07T07:07:52;101984.09;;;11.91;71.10
25759;BME280;13604;52.496;13.456;2023-05-07T07:10:22;102003.47;;;11.94;71.72
25759;BME280;13604;52.496;13.456;2023-05-07T07:12:48;102006.19;;;12.11;71.72
25759;BME280;13604;52.496;13.456;2023-05-07T07:15:14;101995.34;;;12.34;71.88
25759;BME280;13604;52.496;13.456;2023-05-07T07:17:40;101979.50;;;12.31;70.50
25759;BME280;13604;52.496;13.456;2023-05-07T07:20:05;101978.44;;;12.28;70.37
25759;BME280;13604;52.496;13.456;2023-05-07T07:22:31;101979.28;;;12.43;71.44
25759;BME280;13604;52.496;13.456;2023-05-07T07:24:56;101998.81;;;12.80;70.47
25759;BME280;13604;52.496;13.456;2023-05-07T07:27:22;101993.22;;;13.05;68.42
25759;BME280;13604;52.496;13.456;2023-05-07T07:29:47;101994.59;;;12.98;67.94
25759;BME280;13604;52.496;13.456;2023-05-07T07:32:12;101978.59;;;13.08;67.99
25759;BME280;13604;52.496;13.456;2023-05-07T07:34:37;101966.09;;;13.03;65.18
25759;BME280;13604;52.496;13.456;2023-05-07T07:37:03;102000.97;;;13.03;67.46
25759;BME280;13604;52.496;13.456;2023-05-07T07:39:31;101976.63;;;13.04;67.18
25759;BME280;13604;52.496;13.456;2023-05-07T07:41:57;101972.97;;;13.34;64.18
25759;BME280;13604;52.496;13.456;2023-05-07T07:44:22;101995.19;;;14.44;62.81
25759;BME280;13604;52.496;13.456;2023-05-07T07:46:47;101966.22;;;14.77;58.89
25759;BME280;13604;52.496;13.456;2023-05-07T07:49:13;101954.00;;;14.05;61.80
25759;BME280;13604;52.496;13.456;2023-05-07T07:51:38;101981.97;;;15.34;60.03
25759;BME280;13604;52.496;13.456;2023-05-07T07:54:03;101996.34;;;15.61;56.29
25759;BME280;13604;52.496;13.456;2023-05-07T07:56:29;101996.72;;;14.93;58.22
25759;BME280;13604;52.496;13.456;2023-05-07T07:58:54;101989.53;;;15.08;57.73
25759;BME280;13604;52.496;13.456;2023-05-07T08:01:20;101971.06;;;15.83;56.75
25759;BME280;13604;52.496;13.456;2023-05-07T08:03:45;101964.69;;;16.62;53.34
25759;BME280;13604;52.496;13.456;2023-05-07T08:06:10;101945.59;;;16.89;52.29
25759;BME280;13604;52.496;13.456;2023-05-07T08:08:36;101980.44;;;15.97;52.97
25759;BME280;13604;52.496;13.456;2023-05-07T08:11:01;101977.97;;;15.22;56.14
25759;BME280;13604;52.496;13.456;2023-05-07T08:13:26;101969.69;;;16.12;52.91
25759;BME280;13604;52.496;13.456;2023-05-07T08:15:52;102001.28;;;17.00;51.22
25759;BME280;13604;52.496;13.456;2023-05-07T08:18:17;101979.47;;;17.26;50.65
25759;BME280;13604;52.496;13.456;2023-05-07T08:20:42;101972.56;;;17.06;50.45
25759;BME280;13604;52.496;13.456;2023-05-07T08:23:08;101980.88;;;17.65;49.46
25759;BME280;13604;52.496;13.456;2023-05-07T08:25:34;101979.66;;;18.85;47.40
25759;BME280;13604;52.496;13.456;2023-05-07T08:27:59;101967.34;;;17.80;46.73
25759;BME280;13604;52.496;13.456;2023-05-07T08:30:25;101981.47;;;17.58;47.34
25759;BME280;13604;52.496;13.456;2023-05-07T08:32:50;101967.09;;;18.24;47.86
25759;BME280;13604;52.496;13.456;2023-05-07T08:35:15;101955.84;;;18.84;45.25
25759;BME280;13604;52.496;13.456;2023-05-07T08:37:41;101986.41;;;19.06;44.07
25759;BME280;13604;52.496;13.456;2023-05-07T08:40:06;101968.78;;;19.65;43.97
25759;BME280;13604;52.496;13.456;2023-05-07T08:42:35;101981.19;;;20.71;42.16
25759;BME280;13604;52.496;13.456;2023-05-07T08:45:02;101992.56;;;19.97;42.68
25759;BME280;13604;52.496;13.456;2023-05-07T08:47:40;101979.88;;;19.84;43.82
25759;BME280;13604;52.496;13.456;2023-05-07T08:50:07;102002.50;;;21.17;41.76
25759;BME280;13604;52.496;13.456;2023-05-07T08:52:33;101982.69;;;22.35;39.15
25759;BME280;13604;52.496;13.456;2023-05-07T08:54:58;101997.25;;;20.79;39.08
25759;BME280;13604;52.496;13.456;2023-05-07T08:57:24;101995.09;;;21.89;39.49
25759;BME280;13604;52.496;13.456;2023-05-07T08:59:49;101999.72;;;21.99;37.94
25759;BME280;13604;52.496;13.456;2023-05-07T09:02:15;101972.19;;;21.93;38.40
25759;BME280;13604;52.496;13.456;2023-05-07T09:04:41;101979.91;;;21.36;37.80
25759;BME280;13604;52.496;13.456;2023-05-07T09:07:06;101987.13;;;22.97;37.49
25759;BME280;13604;52.496;13.456;2023-05-07T09:09:32;102005.22;;;23.98;35.47
25759;BME280;13604;52.496;13.456;2023-05-07T09:11:58;102012.03;;;23.78;36.06
25759;BME280;13604;52.496;13.456;2023-05-07T09:14:24;101997.53;;;24.35;34.94
25759;BME280;13604;52.496;13.456;2023-05-07T09:16:52;102001.09;;;23.48;35.48
25759;BME280;13604;52.496;13.456;2023-05-07T09:19:22;101999.34;;;19.88;40.23
25759;BME280;13604;52.496;13.456;2023-05-07T09:21:47;102006.78;;;21.52;38.87
25759;BME280;13604;52.496;13.456;2023-05-07T09:24:15;101998.28;;;21.69;37.79
25759;BME280;13604;52.496;13.456;2023-05-07T09:26:40;102000.09;;;20.88;39.73
25759;BME280;13604;52.496;13.456;2023-05-07T09:29:07;101993.47;;;20.34;41.07
25759;BME280;13604;52.496;13.456;2023-05-07T09:31:36;102008.72;;;20.43;41.81
25759;BME280;13604;52.496;13.456;2023-05-07T09:34:02;101987.44;;;21.16;40.78
25759;BME280;13604;52.496;13.456;2023-05-07T09:36:27;101979.50;;;21.16;39.54
25759;BME280;13604;52.496;13.456;2023-05-07T09:38:52;102009.56;;;22.06;39.14
25759;BME280;13604;52.496;13.456;2023-05-07T09:41:18;101972.09;;;21.86;38.23
25759;BME280;13604;52.496;13.456;2023-05-07T09:43:43;101993.78;;;21.65;38.06
25759;BME280;13604;52.496;13.456;2023-05-07T09:46:13;102012.22;;;18.60;42.75
25759;BME280;13604;52.496;13.456;2023-05-07T09:48:41;102012.13;;;18.30;44.08
25759;BME280;13604;52.496;13.456;2023-05-07T09:53:46;102011.75;;;17.69;45.92
25759;BME280;13604;52.496;13.456;2023-05-07T09:56:13;101990.44;;;19.84;42.33
25759;BME280;13604;52.496;13.456;2023-05-07T09:58:41;102014.31;;;19.87;41.36
25759;BME280;13604;52.496;13.456;2023-05-07T10:01:06;102000.38;;;22.93;38.01
25759;BME280;13604;52.496;13.456;2023-05-07T10:03:33;101989.75;;;22.93;35.97
25759;BME280;13604;52.496;13.456;2023-05-07T10:06:00;101984.25;;;22.26;36.33
25759;BME280;13604;52.496;13.456;2023-05-07T10:08:26;102010.53;;;19.17;40.14
25759;BME280;13604;52.496;13.456;2023-05-07T10:10:51;102018.53;;;19.20;41.76
25759;BME280;13604;52.496;13.456;2023-05-07T10:13:19;102015.31;;;18.19;42.56
25759;BME280;13604;52.496;13.456;2023-05-07T10:15:44;102003.78;;;18.16;42.73
25759;BME280;13604;52.496;13.456;2023-05-07T10:18:11;102000.00;;;18.62;42.57
25759;BME280;13604;52.496;13.456;2023-05-07T10:20:37;101999.56;;;19.04;42.50
25759;BME280;13604;52.496;13.456;2023-05-07T10:23:04;102007.88;;;18.61;42.67
25759;BME280;13604;52.496;13.456;2023-05-07T10:25:31;101998.69;;;19.04;42.04
25759;BME280;13604;52.496;13.456;2023-05-07T10:28:05;102026.09;;;18.53;41.79
25759;BME280;13604;52.496;13.456;2023-05-07T10:33:31;102009.09;;;18.17;43.83
25759;BME280;13604;52.496;13.456;2023-05-07T10:36:00;102006.25;;;18.38;42.43
25759;BME280;13604;52.496;13.456;2023-05-07T10:38:27;101997.63;;;17.43;44.43
25759;BME280;13604;52.496;13.456;2023-05-07T10:40:53;101990.31;;;17.11;45.42
25759;BME280;13604;52.496;13.456;2023-05-07T10:43:18;102016.75;;;16.92;45.96
25759;BME280;13604;52.496;13.456;2023-05-07T10:46:10;102020.13;;;16.88;46.57
25759;BME280;13604;52.496;13.456;2023-05-07T10:49:06;102008.56;;;18.55;43.71
25759;BME280;13604;52.496;13.456;2023-05-07T10:51:32;101978.56;;;19.38;40.27
25759;BME280;13604;52.496;13.456;2023-05-07T10:56:36;102024.28;;;20.32;40.33
25759;BME280;13604;52.496;13.456;2023-05-07T11:01:56;102010.84;;;19.90;41.02
25759;BME280;13604;52.496;13.456;2023-05-07T11:04:27;101987.19;;;21.04;38.39
25759;BME280;13604;52.496;13.456;2023-05-07T11:15:05;101998.78;;;23.07;32.79
25759;BME280;13604;52.496;13.456;2023-05-07T11:17:32;101987.88;;;21.80;35.57
25759;BME280;13604;52.496;13.456;2023-05-07T11:19:59;101978.88;;;22.21;34.79
25759;BME280;13604;52.496;13.456;2023-05-07T11:25:00;101991.78;;;21.12;37.33
25759;BME280;13604;52.496;13.456;2023-05-07T11:27:26;101976.53;;;20.26;36.90
25759;BME280;13604;52.496;13.456;2023-05-07T11:29:51;101982.78;;;18.73;39.96
25759;BME280;13604;52.496;13.456;2023-05-07T11:32:22;101997.59;;;20.21;39.49
25759;BME280;13604;52.496;13.456;2023-05-07T11:34:51;101991.03;;;20.78;39.12
25759;BME280;13604;52.496;13.456;2023-05-07T11:37:18;101972.50;;;23.30;34.07
25759;BME280;13604;52.496;13.456;2023-05-07T11:39:43;101980.59;;;23.40;34.17
25759;BME280;13604;52.496;13.456;2023-05-07T11:42:28;101967.41;;;24.41;33.36
25759;BME280;13604;52.496;13.456;2023-05-07T11:44:54;101969.84;;;23.30;34.54
25759;BME280;13604;52.496;13.456;2023-05-07T11:47:20;101986.88;;;24.34;33.14
25759;BME280;13604;52.496;13.456;2023-05-07T11:49:50;101963.63;;;25.74;31.97
25759;BME280;13604;52.496;13.456;2023-05-07T11:52:16;101945.63;;;25.07;31.00
25759;BME280;13604;52.496;13.456;2023-05-07T11:54:49;101981.47;;;23.39;33.70
25759;BME280;13604;52.496;13.456;2023-05-07T11:57:15;101994.91;;;20.93;36.78
25759;BME280;13604;52.496;13.456;2023-05-07T11:59:40;101977.31;;;20.22;39.28
25759;BME280;13604;52.496;13.456;2023-05-07T12:02:07;101957.34;;;20.35;38.59
25759;BME280;13604;52.496;13.456;2023-05-07T12:04:33;101990.28;;;21.66;35.98
25759;BME280;13604;52.496;13.456;2023-05-07T12:06:58;101965.19;;;22.50;34.00
25759;BME280;13604;52.496;13.456;2023-05-07T12:09:23;101944.06;;;25.78;31.06
25759;BME280;13604;52.496;13.456;2023-05-07T12:11:49;101951.91;;;29.25;26.76
25759;BME280;13604;52.496;13.456;2023-05-07T12:14:14;101989.47;;;31.74;24.51
25759;BME280;13604;52.496;13.456;2023-05-07T12:16:41;101990.97;;;31.48;22.80
25759;BME280;13604;52.496;13.456;2023-05-07T12:19:07;101986.56;;;30.54;23.88
25759;BME280;13604;52.496;13.456;2023-05-07T12:21:34;101984.34;;;29.70;23.91
25759;BME280;13604;52.496;13.456;2023-05-07T12:24:00;101987.81;;;28.21;26.50
25759;BME280;13604;52.496;13.456;2023-05-07T12:26:26;101974.34;;;26.45;27.82
25759;BME280;13604;52.496;13.456;2023-05-07T12:28:51;101978.69;;;25.53;29.35
25759;BME280;13604;52.496;13.456;2023-05-07T12:31:17;101987.84;;;24.43;30.25
25759;BME280;13604;52.496;13.456;2023-05-07T12:33:42;101961.47;;;22.37;32.77
25759;BME280;13604;52.496;13.456;2023-05-07T12:36:07;101996.03;;;22.41;32.77
25759;BME280;13604;52.496;13.456;2023-05-07T12:38:40;101938.75;;;22.01;34.74
25759;BME280;13604;52.496;13.456;2023-05-07T12:41:10;101964.28;;;25.14;31.36
25759;BME280;13604;52.496;13.456;2023-05-07T12:43:36;101970.75;;;25.95;29.52
25759;BME280;13604;52.496;13.456;2023-05-07T12:46:04;101970.28;;;24.66;30.25
25759;BME280;13604;52.496;13.456;2023-05-07T12:48:30;101969.34;;;24.57;30.36
25759;BME280;13604;52.496;13.456;2023-05-07T12:50:56;101974.78;;;27.73;27.19
25759;BME280;13604;52.496;13.456;2023-05-07T12:53:24;101995.53;;;25.35;29.06
25759;BME280;13604;52.496;13.456;2023-05-07T12:55:52;101948.41;;;25.34;29.11